Time;durP1;ratioP1;P1;durP2;ratioP2;P2;SDS_P1;SDS_P2;PMS_P1;PMS_P2;Temp;Humidity;BMP_temperature;BMP_pressure;BME280_temperature;BME280_humidity;BME280_pressure;Samples;Min_cycle;Max_cycle;Signal;HPM_P1;HPM_P2
2021/06/15 00:02:49;;;;;;;;;3.00;3.00;;;;;;;;8847823;40;9872;-56
2021/06/15 00:08:51;;;;;;;;;4.33;4.33;;;;;;;;8847860;40;9823;-57
2021/06/15 00:14:53;;;;;;;;;2.00;2.00;;;;;;;;8846961;40;9872;-56
2021/06/15 00:20:55;;;;;;;;;4.67;4.67;;;;;;;;8846419;40;9848;-56
2021/06/15 00:26:57;;;;;;;;;4.00;4.00;;;;;;;;8847265;40;9872;-57
2021/06/15 00:32:59;;;;;;;;;3.67;3.00;;;;;;;;8836958;40;9824;-56
2021/06/15 00:39:01;;;;;;;;;3.67;3.67;;;;;;;;8851347;40;9800;-57
2021/06/15 00:45:07;;;;;;;;;7.00;7.00;;;;;;;;8851505;40;9855;-56
2021/06/15 00:51:10;;;;;;;;;6.00;5.33;;;;;;;;8849945;40;9879;-57
2021/06/15 00:57:17;;;;;;;;;6.00;4.33;;;;;;;;8849983;40;10363;-57
2021/06/15 01:03:22;;;;;;;;;4.33;4.33;;;;;;;;8851549;40;9851;-56
2021/06/15 01:09:35;;;;;;;;;3.67;3.00;;;;;;;;8841204;40;9847;-57
2021/06/15 01:16:06;;;;;;;;;4.00;4.00;;;;;;;;8849797;40;9963;-55
2021/06/15 01:22:50;;;;;;;;;1.00;1.00;;;;;;;;8850887;40;10363;-57
2021/06/15 01:29:09;;;;;;;;;8.33;7.00;;;;;;;;8816509;40;9894;-54
2021/06/15 01:35:13;;;;;;;;;13.67;13.33;;;;;;;;8850281;40;9920;-56
2021/06/15 01:41:22;;;;;;;;;8.00;8.00;;;;;;;;8840134;40;9813;-56
2021/06/15 01:47:27;;;;;;;;;2.00;2.00;;;;;;;;8848836;40;9821;-56
2021/06/15 01:53:33;;;;;;;;;7.67;7.33;;;;;;;;8840551;40;10441;-57
2021/06/15 01:59:40;;;;;;;;;10.33;7.67;;;;;;;;8849867;40;10087;-55
2021/06/15 02:05:50;;;;;;;;;7.00;7.00;;;;;;;;8823995;40;9982;-55
2021/06/15 02:11:53;;;;;;;;;4.00;3.67;;;;;;;;8823066;40;10053;-57
2021/06/15 02:18:20;;;;;;;;;4.00;4.00;;;;;;;;8824801;40;9937;-56
2021/06/15 02:24:39;;;;;;;;;4.33;3.00;;;;;;;;8823207;40;9949;-57
2021/06/15 02:30:42;;;;;;;;;2.67;2.67;;;;;;;;8823712;40;9969;-57
2021/06/15 02:36:45;;;;;;;;;3.00;3.00;;;;;;;;8824002;40;9925;-57
2021/06/15 02:42:50;;;;;;;;;3.00;3.00;;;;;;;;8823619;40;9956;-54
2021/06/15 02:48:58;;;;;;;;;4.67;3.00;;;;;;;;8822461;40;10267;-56
2021/06/15 02:55:12;;;;;;;;;4.00;3.00;;;;;;;;8822215;40;9964;-55
2021/06/15 03:01:15;;;;;;;;;4.33;4.33;;;;;;;;8821017;40;10061;-57
2021/06/15 03:07:24;;;;;;;;;3.00;3.00;;;;;;;;8846935;40;9775;-56
2021/06/15 03:13:38;;;;;;;;;8.00;8.00;;;;;;;;8838758;40;10051;-56
2021/06/15 03:19:55;;;;;;;;;8.67;6.33;;;;;;;;8838422;40;9865;-57
2021/06/15 03:26:03;;;;;;;;;5.33;5.33;;;;;;;;8836790;40;9821;-59
2021/06/15 03:32:12;;;;;;;;;6.00;6.00;;;;;;;;8837211;40;10099;-56
2021/06/15 03:38:16;;;;;;;;;7.00;7.00;;;;;;;;8837163;40;9998;-56
2021/06/15 03:44:20;;;;;;;;;7.33;7.00;;;;;;;;8847085;40;9865;-56
2021/06/15 03:50:23;;;;;;;;;8.67;8.67;;;;;;;;8847605;40;9920;-57
2021/06/15 03:56:25;;;;;;;;;7.00;6.33;;;;;;;;8848375;40;9861;-57
2021/06/15 04:02:28;;;;;;;;;5.00;5.00;;;;;;;;9895141;23;9963;-58
2021/06/15 04:08:37;;;;;;;;;4.67;4.67;;;;;;;;8842943;40;9940;-57
2021/06/15 04:14:44;;;;;;;;;3.33;3.33;;;;;;;;8849044;40;10435;-57
2021/06/15 04:20:50;;;;;;;;;7.00;4.33;;;;;;;;8850523;40;10357;-58
2021/06/15 04:26:58;;;;;;;;;5.33;4.00;;;;;;;;8840033;40;9820;-57
2021/06/15 04:33:03;;;;;;;;;7.00;5.33;;;;;;;;8849047;40;9840;-57
2021/06/15 04:39:07;;;;;;;;;4.67;4.67;;;;;;;;8848607;40;9892;-58
2021/06/15 04:45:10;;;;;;;;;7.00;5.67;;;;;;;;8848326;40;9820;-58
2021/06/15 04:51:12;;;;;;;;;7.00;6.33;;;;;;;;8848491;40;10618;-59
2021/06/15 04:57:20;;;;;;;;;2.67;2.67;;;;;;;;8847174;40;10689;-58
2021/06/15 05:03:23;;;;;;;;;6.00;6.00;;;;;;;;8849304;40;9748;-58
2021/06/15 05:09:28;;;;;;;;;6.00;6.00;;;;;;;;8847714;40;11112;-57
2021/06/15 05:15:31;;;;;;;;;9.00;6.33;;;;;;;;8848165;40;9850;-58
2021/06/15 05:21:50;;;;;;;;;7.00;7.00;;;;;;;;8843093;40;9890;-57
2021/06/15 05:27:52;;;;;;;;;6.75;5.00;;;;;;;;8850744;40;10883;-58
2021/06/15 05:33:54;;;;;;;;;8.00;8.00;;;;;;;;8851549;40;10041;-56
2021/06/15 05:39:57;;;;;;;;;9.00;7.00;;;;;;;;8850529;40;10692;-57
2021/06/15 05:45:59;;;;;;;;;5.75;3.75;;;;;;;;8851524;40;10615;-55
2021/06/15 05:52:06;;;;;;;;;9.00;7.00;;;;;;;;8851126;40;10705;-55
2021/06/15 05:58:09;;;;;;;;;4.75;4.75;;;;;;;;8850833;40;10852;-57
2021/06/15 06:04:13;;;;;;;;;5.75;5.00;;;;;;;;8852003;40;10985;-57
2021/06/15 06:10:15;;;;;;;;;8.33;8.33;;;;;;;;8851348;40;9992;-56
2021/06/15 06:16:17;;;;;;;;;8.00;7.00;;;;;;;;8862110;40;10627;-56
2021/06/15 06:22:39;;;;;;;;;9.50;7.25;;;;;;;;8851627;40;11074;-56
2021/06/15 06:28:41;;;;;;;;;7.50;7.50;;;;;;;;8837315;40;11101;-54
2021/06/15 06:34:43;;;;;;;;;7.00;6.00;;;;;;;;8846597;40;10531;-55
2021/06/15 06:40:45;;;;;;;;;8.50;8.00;;;;;;;;8845348;40;10722;-54
2021/06/15 06:46:47;;;;;;;;;6.75;6.50;;;;;;;;8842944;40;10427;-55
2021/06/15 06:52:49;;;;;;;;;5.75;4.75;;;;;;;;8832167;40;10536;-55
2021/06/15 06:58:51;;;;;;;;;4.25;4.25;;;;;;;;8836735;40;10476;-56
2021/06/15 07:04:54;;;;;;;;;5.25;5.25;;;;;;;;8843218;40;10754;-54
2021/06/15 07:10:56;;;;;;;;;6.75;6.25;;;;;;;;8824080;40;10745;-54
2021/06/15 07:16:58;;;;;;;;;3.00;3.00;;;;;;;;8833345;40;10380;-54
2021/06/15 07:23:00;;;;;;;;;5.00;4.75;;;;;;;;8838704;40;10599;-56
2021/06/15 07:29:03;;;;;;;;;2.25;2.25;;;;;;;;9819351;22;10496;-61
2021/06/15 07:35:05;;;;;;;;;4.25;4.25;;;;;;;;8830301;40;10676;-60
2021/06/15 07:41:07;;;;;;;;;4.50;4.50;;;;;;;;8825456;40;10477;-61
2021/06/15 07:47:09;;;;;;;;;6.00;5.75;;;;;;;;8832452;40;10667;-65
2021/06/15 07:53:11;;;;;;;;;8.25;6.50;;;;;;;;8823815;40;10895;-63
2021/06/15 07:59:13;;;;;;;;;3.75;3.75;;;;;;;;8842394;40;10845;-63
2021/06/15 08:05:15;;;;;;;;;5.75;5.75;;;;;;;;8826966;40;10688;-63
2021/06/15 08:11:17;;;;;;;;;4.33;4.33;;;;;;;;8827250;40;11233;-66
2021/06/15 08:17:19;;;;;;;;;6.00;6.00;;;;;;;;8822403;40;10763;-64
2021/06/15 08:23:23;;;;;;;;;3.25;3.25;;;;;;;;8823453;40;10689;-64
2021/06/15 08:29:25;;;;;;;;;6.00;3.00;;;;;;;;8825915;40;10615;-63
2021/06/15 08:35:27;;;;;;;;;5.50;5.00;;;;;;;;8826755;40;10838;-67
2021/06/15 08:41:30;;;;;;;;;5.00;5.00;;;;;;;;8826190;40;10711;-73
2021/06/15 08:47:32;;;;;;;;;5.00;4.00;;;;;;;;8811880;40;10652;-62
2021/06/15 08:53:36;;;;;;;;;4.00;3.25;;;;;;;;8822435;40;10626;-65
2021/06/15 08:59:38;;;;;;;;;5.25;5.25;;;;;;;;8827737;40;10652;-68
2021/06/15 09:05:44;;;;;;;;;6.67;5.67;;;;;;;;8822706;40;10337;-68
2021/06/15 09:11:56;;;;;;;;;7.67;6.67;;;;;;;;8830044;40;10096;-69
2021/06/15 09:17:59;;;;;;;;;10.67;10.33;;;;;;;;8825075;40;9848;-66
2021/06/15 09:24:08;;;;;;;;;15.67;14.33;;;;;;;;8830876;40;9944;-67
2021/06/15 09:30:14;;;;;;;;;8.00;7.67;;;;;;;;8825803;40;10094;-68
2021/06/15 09:36:16;;;;;;;;;11.33;10.67;;;;;;;;8823117;40;10057;-67
2021/06/15 09:42:17;;;;;;;;;3.25;3.25;;;;;;;;8821166;40;10773;-65
2021/06/15 09:48:29;;;;;;;;;6.67;5.67;;;;;;;;8828349;40;10441;-66
2021/06/15 09:55:03;;;;;;;;;3.50;3.00;;;;;;;;8828389;40;10616;-70
2021/06/15 10:01:09;;;;;;;;;8.00;8.00;;;;;;;;8823443;40;10195;-67
2021/06/15 10:07:30;;;;;;;;;6.75;6.75;;;;;;;;8815666;40;10646;-67
2021/06/15 10:13:50;;;;;;;;;7.00;7.00;;;;;;;;8818804;40;10419;-62
2021/06/15 10:19:54;;;;;;;;;6.00;6.00;;;;;;;;8821909;40;10949;-61
2021/06/15 10:25:57;;;;;;;;;6.00;6.00;;;;;;;;8831143;40;11148;-63
2021/06/15 10:32:10;;;;;;;;;8.67;6.00;;;;;;;;8813106;40;10507;-64
2021/06/15 10:38:25;;;;;;;;;8.00;6.33;;;;;;;;8836567;40;10940;-61
2021/06/15 10:44:27;;;;;;;;;10.00;9.67;;;;;;;;8831473;40;9876;-62
2021/06/15 10:50:40;;;;;;;;;8.00;7.67;;;;;;;;8820601;40;10177;-63
2021/06/15 10:56:42;;;;;;;;;9.75;8.00;;;;;;;;8820566;40;10899;-65
2021/06/15 11:03:23;;;;;;;;;6.25;5.00;;;;;;;;8817606;40;10846;-62
2021/06/15 11:09:29;;;;;;;;;3.75;3.75;;;;;;;;8820202;40;10618;-64
2021/06/15 11:15:31;;;;;;;;;7.00;7.00;;;;;;;;8819271;40;11365;-63
2021/06/15 11:21:45;;;;;;;;;5.00;5.00;;;;;;;;8811677;40;11706;-63
2021/06/15 11:27:47;;;;;;;;;4.75;4.00;;;;;;;;8814581;40;10581;-64
2021/06/15 11:33:58;;;;;;;;;3.25;3.25;;;;;;;;8807686;40;10592;-63
2021/06/15 11:40:33;;;;;;;;;5.00;4.00;;;;;;;;8819631;40;10688;-62
2021/06/15 11:46:35;;;;;;;;;6.00;6.00;;;;;;;;8817371;40;10682;-61
2021/06/15 11:52:42;;;;;;;;;7.75;6.50;;;;;;;;8817778;40;10594;-61
2021/06/15 11:58:47;;;;;;;;;4.50;4.50;;;;;;;;8823197;40;10759;-66
2021/06/15 12:05:17;;;;;;;;;5.25;4.25;;;;;;;;8820771;40;10428;-62
2021/06/15 12:11:21;;;;;;;;;2.75;2.75;;;;;;;;8818966;40;10494;-63
2021/06/15 12:17:22;;;;;;;;;5.00;5.00;;;;;;;;8822014;40;11505;-66
2021/06/15 12:23:36;;;;;;;;;1.00;1.00;;;;;;;;8819398;40;11076;-64
2021/06/15 12:29:38;;;;;;;;;2.00;2.00;;;;;;;;8820087;40;10342;-65
2021/06/15 12:35:40;;;;;;;;;4.25;3.00;;;;;;;;8826015;40;10875;-62
2021/06/15 12:41:55;;;;;;;;;4.50;3.75;;;;;;;;8827304;40;10429;-62
2021/06/15 12:47:57;;;;;;;;;5.50;5.25;;;;;;;;8828574;40;10390;-65
2021/06/15 12:54:22;;;;;;;;;3.00;2.50;;;;;;;;8828839;40;10450;-64
2021/06/15 13:00:24;;;;;;;;;4.50;4.50;;;;;;;;8828131;40;10313;-62
2021/06/15 13:06:28;;;;;;;;;4.00;4.00;;;;;;;;8832472;40;10297;-64
2021/06/15 13:12:30;;;;;;;;;3.25;2.50;;;;;;;;8832664;40;10418;-64
2021/06/15 13:18:32;;;;;;;;;3.00;3.00;;;;;;;;8834958;40;10548;-64
2021/06/15 13:24:36;;;;;;;;;2.25;2.25;;;;;;;;8830605;40;10302;-63
2021/06/15 13:30:41;;;;;;;;;2.00;2.00;;;;;;;;8827705;40;10311;-64
2021/06/15 13:36:43;;;;;;;;;6.25;5.25;;;;;;;;8820899;40;10480;-61
2021/06/15 13:42:44;;;;;;;;;5.00;5.00;;;;;;;;8826988;40;11699;-62
2021/06/15 13:48:46;;;;;;;;;3.25;3.25;;;;;;;;8824901;40;10226;-62
2021/06/15 13:54:49;;;;;;;;;6.75;6.75;;;;;;;;8824553;40;10276;-63
2021/06/15 14:00:51;;;;;;;;;6.00;5.00;;;;;;;;8824819;40;10435;-61
2021/06/15 14:06:53;;;;;;;;;8.00;6.00;;;;;;;;8824347;40;10336;-63
2021/06/15 14:12:55;;;;;;;;;9.75;8.00;;;;;;;;8825258;40;10413;-63
2021/06/15 14:18:57;;;;;;;;;2.25;2.25;;;;;;;;8822479;40;10411;-63
2021/06/15 14:24:59;;;;;;;;;6.75;6.75;;;;;;;;8816968;40;10629;-63
2021/06/15 14:31:02;;;;;;;;;12.67;12.67;;;;;;;;8824140;40;10147;-62
2021/06/15 14:37:05;;;;;;;;;13.00;13.00;;;;;;;;8820518;40;10273;-63
2021/06/15 14:43:07;;;;;;;;;14.00;14.00;;;;;;;;8821468;40;9934;-62
2021/06/15 14:49:09;;;;;;;;;10.33;10.33;;;;;;;;8822138;40;10608;-60
2021/06/15 14:55:14;;;;;;;;;8.33;8.33;;;;;;;;8813941;40;10357;-59
2021/06/15 15:01:16;;;;;;;;;10.33;7.00;;;;;;;;8824406;40;10103;-62
2021/06/15 15:07:17;;;;;;;;;7.50;7.25;;;;;;;;8823939;40;10745;-62
2021/06/15 15:13:19;;;;;;;;;9.25;8.50;;;;;;;;8823510;40;10638;-62
2021/06/15 15:19:21;;;;;;;;;8.00;6.00;;;;;;;;8823587;40;10456;-63
2021/06/15 15:25:23;;;;;;;;;11.33;11.33;;;;;;;;8823704;40;10990;-62
2021/06/15 15:31:28;;;;;;;;;8.33;8.33;;;;;;;;8823506;40;10089;-63
2021/06/15 15:37:30;;;;;;;;;9.00;6.75;;;;;;;;8824591;40;10662;-63
2021/06/15 15:43:35;;;;;;;;;9.25;9.25;;;;;;;;8823081;40;10751;-63
2021/06/15 15:49:37;;;;;;;;;15.00;13.67;;;;;;;;8823251;40;10466;-62
2021/06/15 15:55:39;;;;;;;;;8.00;5.50;;;;;;;;8822946;40;10688;-64
2021/06/15 16:01:42;;;;;;;;;6.67;6.67;;;;;;;;8822314;40;11542;-63
2021/06/15 16:07:47;;;;;;;;;10.33;9.67;;;;;;;;8824025;40;10550;-63
2021/06/15 16:13:49;;;;;;;;;5.00;5.00;;;;;;;;8823230;40;10842;-61
2021/06/15 16:19:53;;;;;;;;;6.67;4.33;;;;;;;;8823334;40;10352;-62
2021/06/15 16:25:55;;;;;;;;;9.33;9.00;;;;;;;;8813168;40;10006;-62
2021/06/15 16:31:57;;;;;;;;;12.67;12.33;;;;;;;;8822318;40;10190;-61
2021/06/15 16:38:01;;;;;;;;;10.00;10.00;;;;;;;;8821869;40;11052;-61
2021/06/15 16:44:04;;;;;;;;;8.67;8.00;;;;;;;;8821990;40;10004;-62
2021/06/15 16:50:08;;;;;;;;;12.00;11.67;;;;;;;;8823396;40;11122;-64
2021/06/15 16:56:10;;;;;;;;;7.67;7.67;;;;;;;;8821847;40;10517;-61
2021/06/15 17:02:13;;;;;;;;;24.00;22.33;;;;;;;;8821614;40;9903;-62
2021/06/15 17:08:16;;;;;;;;;13.00;13.00;;;;;;;;8822273;40;10094;-60
2021/06/15 17:14:17;;;;;;;;;13.33;10.00;;;;;;;;8821798;40;10438;-61
2021/06/15 17:20:19;;;;;;;;;25.00;22.33;;;;;;;;8822848;40;9967;-62
2021/06/15 17:26:21;;;;;;;;;23.67;19.33;;;;;;;;8825123;40;9986;-60
2021/06/15 17:32:23;;;;;;;;;17.00;15.00;;;;;;;;8814597;40;9868;-60
2021/06/15 17:38:25;;;;;;;;;17.33;16.67;;;;;;;;8825418;40;10217;-60
2021/06/15 17:44:28;;;;;;;;;16.67;16.67;;;;;;;;8823539;40;9958;-66
2021/06/15 17:50:32;;;;;;;;;14.67;13.67;;;;;;;;8825298;40;9848;-60
2021/06/15 17:56:36;;;;;;;;;14.00;14.00;;;;;;;;8825325;40;10161;-60
2021/06/15 18:02:39;;;;;;;;;17.00;17.00;;;;;;;;8824466;40;9902;-62
2021/06/15 18:08:57;;;;;;;;;15.00;15.00;;;;;;;;8824894;40;10176;-60
2021/06/15 18:14:59;;;;;;;;;18.33;18.00;;;;;;;;8824415;40;10474;-61
2021/06/15 18:21:01;;;;;;;;;17.00;16.67;;;;;;;;8824689;40;10554;-62
2021/06/15 18:27:03;;;;;;;;;18.33;16.67;;;;;;;;8824042;40;9908;-60
2021/06/15 18:33:05;;;;;;;;;19.00;16.00;;;;;;;;8824422;40;9915;-61
2021/06/15 18:39:08;;;;;;;;;18.67;17.00;;;;;;;;8824232;40;9852;-61
2021/06/15 18:45:11;;;;;;;;;21.67;20.67;;;;;;;;8824540;40;9953;-61
2021/06/15 18:51:15;;;;;;;;;23.00;21.67;;;;;;;;8824008;40;9948;-61
2021/06/15 18:57:17;;;;;;;;;27.67;18.33;;;;;;;;8823476;40;9869;-62
2021/06/15 19:03:19;;;;;;;;;24.00;20.00;;;;;;;;8823436;40;9958;-63
2021/06/15 19:09:21;;;;;;;;;21.00;19.00;;;;;;;;8824273;40;10139;-60
2021/06/15 19:15:23;;;;;;;;;18.67;18.67;;;;;;;;8814562;40;9902;-62
2021/06/15 19:21:25;;;;;;;;;17.33;17.00;;;;;;;;8824127;40;9958;-61
2021/06/15 19:27:27;;;;;;;;;14.00;14.00;;;;;;;;8824027;40;10985;-61
2021/06/15 19:33:29;;;;;;;;;22.33;19.00;;;;;;;;8824260;40;9985;-61
2021/06/15 19:39:34;;;;;;;;;18.67;18.33;;;;;;;;8822847;40;9939;-61
2021/06/15 19:45:35;;;;;;;;;21.00;17.67;;;;;;;;8822585;40;9859;-61
2021/06/15 19:51:38;;;;;;;;;22.33;20.67;;;;;;;;8824066;40;9946;-59
2021/06/15 19:57:40;;;;;;;;;20.33;19.00;;;;;;;;8823488;40;11136;-61
2021/06/15 20:03:42;;;;;;;;;30.67;27.67;;;;;;;;8822357;40;9979;-60
2021/06/15 20:09:44;;;;;;;;;30.33;27.67;;;;;;;;8824110;40;10106;-61
2021/06/15 20:15:46;;;;;;;;;33.33;26.00;;;;;;;;8821685;40;9986;-61
2021/06/15 20:21:48;;;;;;;;;30.33;29.33;;;;;;;;8823442;40;9930;-60
2021/06/15 20:27:50;;;;;;;;;27.33;27.33;;;;;;;;8822074;40;9915;-61
2021/06/15 20:33:52;;;;;;;;;35.67;30.00;;;;;;;;8821160;40;9993;-59
2021/06/15 20:39:54;;;;;;;;;36.00;33.00;;;;;;;;8813029;40;9958;-60
2021/06/15 20:46:07;;;;;;;;;37.00;32.33;;;;;;;;8820899;40;9915;-60
2021/06/15 20:52:10;;;;;;;;;40.67;35.00;;;;;;;;8820834;40;9958;-59
2021/06/15 20:58:12;;;;;;;;;41.33;37.00;;;;;;;;8811220;40;9957;-60
2021/06/15 21:04:15;;;;;;;;;39.00;36.67;;;;;;;;8825174;40;11065;-62
2021/06/15 21:10:17;;;;;;;;;35.33;33.67;;;;;;;;8825706;40;9893;-60
2021/06/15 21:16:20;;;;;;;;;30.67;30.00;;;;;;;;8825123;40;9972;-60
2021/06/15 21:22:23;;;;;;;;;37.67;35.00;;;;;;;;8825827;40;10647;-60
2021/06/15 21:28:28;;;;;;;;;50.00;41.00;;;;;;;;8824832;40;9958;-60
2021/06/15 21:34:30;;;;;;;;;51.00;41.67;;;;;;;;8824510;40;9974;-59
2021/06/15 21:40:32;;;;;;;;;40.00;34.33;;;;;;;;8825149;40;9936;-60
2021/06/15 21:46:35;;;;;;;;;39.67;36.00;;;;;;;;8823476;40;10205;-61
2021/06/15 21:52:37;;;;;;;;;45.33;37.00;;;;;;;;8824207;40;9966;-60
2021/06/15 21:58:39;;;;;;;;;41.33;37.33;;;;;;;;8824653;40;9991;-60
2021/06/15 22:04:41;;;;;;;;;36.67;33.00;;;;;;;;8823259;40;9958;-60
2021/06/15 22:10:43;;;;;;;;;38.67;35.00;;;;;;;;8825495;40;11056;-60
2021/06/15 22:16:45;;;;;;;;;41.67;37.67;;;;;;;;8823136;40;9965;-60
2021/06/15 22:22:48;;;;;;;;;34.33;34.00;;;;;;;;8825111;40;9916;-58
2021/06/15 22:28:50;;;;;;;;;39.00;37.00;;;;;;;;8824794;40;9902;-61
2021/06/15 22:34:52;;;;;;;;;37.67;35.33;;;;;;;;8823523;40;9963;-65
2021/06/15 22:40:53;;;;;;;;;39.67;36.00;;;;;;;;8824645;40;9982;-58
2021/06/15 22:46:55;;;;;;;;;40.00;35.00;;;;;;;;8813183;40;10110;-59
2021/06/15 22:52:58;;;;;;;;;33.00;31.67;;;;;;;;8823572;40;9958;-59
2021/06/15 22:59:00;;;;;;;;;27.67;27.67;;;;;;;;8823254;40;9875;-60
2021/06/15 23:05:06;;;;;;;;;29.33;24.33;;;;;;;;8823331;40;9935;-60
2021/06/15 23:11:09;;;;;;;;;22.67;22.67;;;;;;;;8824576;40;9936;-60
2021/06/15 23:17:11;;;;;;;;;24.33;20.00;;;;;;;;8823623;40;9890;-60
2021/06/15 23:23:13;;;;;;;;;15.67;15.67;;;;;;;;8824137;40;9912;-60
2021/06/15 23:29:17;;;;;;;;;19.00;17.67;;;;;;;;8823071;40;9904;-62
2021/06/15 23:35:19;;;;;;;;;17.33;16.33;;;;;;;;8822141;40;9986;-60
2021/06/15 23:41:21;;;;;;;;;19.00;18.00;;;;;;;;8822680;40;9917;-60
2021/06/15 23:47:23;;;;;;;;;19.67;18.33;;;;;;;;8821544;40;9990;-60
2021/06/15 23:53:26;;;;;;;;;22.33;20.00;;;;;;;;8822820;40;9884;-59
2021/06/15 23:59:27;;;;;;;;;19.67;17.00;;;;;;;;8812650;40;10240;-60
